Time;durP1;ratioP1;P1;durP2;ratioP2;P2;SDS_P1;SDS_P2;PMS_P1;PMS_P2;Temp;Humidity;BMP_temperature;BMP_pressure;BME280_temperature;BME280_humidity;BME280_pressure;Samples;Min_cycle;Max_cycle;Signal;HPM_P1;HPM_P2
2022/05/27 00:00:45;;;;;;;3.92;2.80;;;;;;;20.20;50.20;101865.13;5135616;27;20057;-65
2022/05/27 00:03:12;;;;;;;5.50;2.72;;;;;;;20.17;49.91;101857.22;5135558;27;20046;-65
2022/05/27 00:05:39;;;;;;;6.13;2.95;;;;;;;20.15;49.83;101856.53;5134454;27;20039;-65
2022/05/27 00:08:06;;;;;;;6.75;3.15;;;;;;;20.15;50.43;101847.47;5135438;27;20173;-65
2022/05/27 00:10:34;;;;;;;5.93;3.00;;;;;;;20.12;50.06;101848.63;5135353;27;20035;-65
2022/05/27 00:13:00;;;;;;;4.85;2.70;;;;;;;20.11;50.42;101851.50;5135155;27;20043;-65
2022/05/27 00:15:31;;;;;;;4.65;2.45;;;;;;;20.09;50.58;101845.34;5134984;27;20492;-65
2022/05/27 00:17:58;;;;;;;7.72;3.53;;;;;;;20.06;50.65;101851.91;5116340;27;20496;-65
2022/05/27 00:20:25;;;;;;;7.25;3.05;;;;;;;20.04;50.47;101847.59;5116049;27;20043;-65
2022/05/27 00:22:52;;;;;;;6.40;3.22;;;;;;;20.00;50.86;101837.00;5134403;27;20072;-65
2022/05/27 00:25:19;;;;;;;6.55;3.20;;;;;;;19.99;50.96;101840.72;5134793;27;20050;-65
2022/05/27 00:27:46;;;;;;;5.80;3.00;;;;;;;19.97;50.71;101834.56;5134436;27;20613;-66
2022/05/27 00:30:13;;;;;;;6.13;3.80;;;;;;;19.96;50.87;101837.44;5134258;27;20047;-65
2022/05/27 00:32:40;;;;;;;7.80;3.40;;;;;;;19.96;50.97;101845.63;5123659;27;20047;-65
2022/05/27 00:35:11;;;;;;;5.85;3.20;;;;;;;19.95;50.98;101839.31;5114697;28;20048;-66
2022/05/27 00:37:38;;;;;;;5.90;3.08;;;;;;;19.95;51.00;101833.84;5114904;28;20090;-65
2022/05/27 00:40:05;;;;;;;6.72;2.78;;;;;;;19.94;51.15;101832.13;5114955;28;20046;-65
2022/05/27 00:42:32;;;;;;;8.45;3.15;;;;;;;19.95;51.28;101827.53;5114614;28;20047;-65
2022/05/27 00:45:02;;;;;;;4.65;3.13;;;;;;;19.95;51.40;101831.13;5114487;28;20040;-65
2022/05/27 00:47:33;;;;;;;5.07;3.03;;;;;;;19.94;51.41;101832.13;5114210;28;20039;-65
2022/05/27 00:50:05;;;;;;;6.68;3.13;;;;;;;19.92;51.05;101825.97;5114298;28;20512;-65
2022/05/27 00:52:34;;;;;;;8.20;3.45;;;;;;;19.91;51.33;101837.00;5133480;27;20047;-65
2022/05/27 00:55:10;;;;;;;6.43;3.10;;;;;;;19.88;50.94;101829.97;5135081;27;20130;-65
2022/05/27 00:57:44;;;;;;;5.28;3.05;;;;;;;19.87;51.44;101827.41;5134453;27;20062;-64
2022/05/27 01:00:18;;;;;;;10.90;3.50;;;;;;;19.86;51.32;101823.81;5134684;27;20134;-65
2022/05/27 01:02:45;;;;;;;9.40;3.05;;;;;;;19.85;51.70;101833.00;5113724;28;20047;-65
2022/05/27 01:05:18;;;;;;;8.73;3.55;;;;;;;19.84;51.63;101834.00;5113847;28;20072;-64
2022/05/27 01:07:45;;;;;;;7.07;3.70;;;;;;;19.82;51.90;101824.25;5113786;28;20490;-65
2022/05/27 01:10:16;;;;;;;7.80;3.72;;;;;;;19.80;51.65;101829.00;5113646;28;20046;-64
2022/05/27 01:13:04;;;;;;;9.35;4.30;;;;;;;19.78;52.04;101820.97;5133671;27;20477;-64
2022/05/27 01:16:11;;;;;;;11.50;4.40;;;;;;;19.73;52.29;101814.22;5133883;27;20039;-64
2022/05/27 01:21:58;;;;;;;12.48;4.75;;;;;;;19.66;52.66;101824.84;5133597;27;20288;-64
2022/05/27 01:24:58;;;;;;;7.45;4.30;;;;;;;19.61;52.79;101816.25;5133693;27;20043;-64
2022/05/27 01:27:30;;;;;;;11.23;5.05;;;;;;;19.61;52.82;101822.56;5133604;27;20049;-64
2022/05/27 01:30:30;;;;;;;11.55;4.82;;;;;;;19.58;53.26;101820.13;5133326;27;20493;-64
2022/05/27 01:33:31;;;;;;;9.32;4.97;;;;;;;19.52;53.75;101826.13;5112560;28;20047;-65
2022/05/27 01:36:15;;;;;;;11.32;5.70;;;;;;;19.48;53.34;101818.38;5030971;28;20062;-64
2022/05/27 01:39:11;;;;;;;13.18;5.70;;;;;;;19.40;54.16;101816.34;5094509;28;20489;-65
2022/05/27 01:41:49;;;;;;;7.13;5.30;;;;;;;19.34;54.24;101820.50;5109049;27;20051;-65
2022/05/27 01:44:25;;;;;;;7.88;5.13;;;;;;;19.31;54.21;101815.31;5132952;27;20043;-64
2022/05/27 01:46:51;;;;;;;11.50;6.28;;;;;;;19.30;54.47;101818.19;5133211;27;20070;-65
2022/05/27 01:49:25;;;;;;;9.50;5.65;;;;;;;19.28;55.31;101814.72;5133001;27;20050;-64
2022/05/27 01:52:08;;;;;;;13.23;6.28;;;;;;;19.24;55.43;101813.28;5132743;27;20047;-64
2022/05/27 01:55:27;;;;;;;11.23;6.40;;;;;;;19.21;55.75;101814.44;5133108;27;20127;-64
2022/05/27 01:58:00;;;;;;;12.02;6.05;;;;;;;19.22;55.64;101823.47;5001077;28;20049;-64
2022/05/27 02:00:28;;;;;;;11.75;6.63;;;;;;;19.19;55.92;101831.94;5029385;28;20587;-65
2022/05/27 02:03:00;;;;;;;10.27;5.88;;;;;;;19.16;56.11;101824.91;5055918;28;20076;-65
2022/05/27 02:05:43;;;;;;;12.32;7.47;;;;;;;19.15;56.47;101841.38;5112190;28;20501;-64
2022/05/27 02:08:18;;;;;;;11.73;6.28;;;;;;;19.14;56.08;101847.81;5112118;28;20064;-64
2022/05/27 02:11:03;;;;;;;12.40;6.85;;;;;;;19.11;56.43;101859.84;5113700;28;20028;-64
2022/05/27 02:13:38;;;;;;;13.80;7.10;;;;;;;19.12;56.57;101858.00;5132726;28;20039;-64
2022/05/27 02:16:13;;;;;;;11.75;6.55;;;;;;;19.14;56.66;101864.16;5133132;28;20045;-64
2022/05/27 02:18:50;;;;;;;12.23;5.63;;;;;;;19.15;56.98;101863.16;5132397;28;20486;-64
2022/05/27 02:21:24;;;;;;;11.77;5.75;;;;;;;19.15;56.99;101865.88;5132485;28;20042;-64
2022/05/27 02:24:01;;;;;;;9.88;5.80;;;;;;;19.13;56.89;101865.16;5132469;28;20392;-63
2022/05/27 02:26:32;;;;;;;8.27;5.25;;;;;;;19.12;57.00;101860.72;5132709;28;20043;-63
2022/05/27 02:29:02;;;;;;;8.95;5.07;;;;;;;19.10;56.92;101857.28;5135774;27;20469;-63
2022/05/27 02:31:32;;;;;;;10.77;5.60;;;;;;;19.07;56.60;101858.41;5136613;27;20035;-63
2022/05/27 02:36:58;;;;;;;6.75;3.85;;;;;;;19.01;57.09;101859.84;5136464;27;20035;-63
2022/05/27 02:39:25;;;;;;;3.47;2.80;;;;;;;18.97;56.90;101857.53;5117843;27;20082;-63
2022/05/27 02:42:01;;;;;;;6.95;3.17;;;;;;;18.91;57.02;101848.06;5136200;27;20388;-64
2022/05/27 02:44:48;;;;;;;5.85;3.25;;;;;;;18.88;56.60;101848.34;5136400;27;20047;-64
2022/05/27 02:47:28;;;;;;;7.20;3.30;;;;;;;18.83;56.80;101839.72;5136136;27;20043;-63
2022/05/27 02:50:12;;;;;;;3.65;2.50;;;;;;;18.81;56.75;101836.28;5136417;27;20424;-63
2022/05/27 02:52:50;;;;;;;4.72;3.00;;;;;;;18.79;57.38;101832.84;5136255;27;20039;-63
2022/05/27 02:55:42;;;;;;;6.10;2.90;;;;;;;18.79;56.91;101823.81;5136643;27;20384;-63
2022/05/27 02:58:09;;;;;;;6.20;3.00;;;;;;;18.81;57.43;101822.66;5136210;27;20043;-63
2022/05/27 03:00:39;;;;;;;6.63;3.05;;;;;;;18.84;57.03;101830.56;5135852;27;20031;-63
2022/05/27 03:03:05;;;;;;;7.22;3.22;;;;;;;18.88;57.34;101825.69;5136066;27;20515;-63
2022/05/27 03:06:08;;;;;;;6.40;3.28;;;;;;;18.88;57.53;101831.13;5135946;27;20488;-63
2022/05/27 03:08:50;;;;;;;7.57;3.13;;;;;;;18.92;57.29;101828.00;5135075;27;20460;-63
2022/05/27 03:11:27;;;;;;;6.20;2.97;;;;;;;18.90;57.55;101824.56;5115333;28;20490;-63
2022/05/27 03:14:24;;;;;;;4.15;3.20;;;;;;;18.89;57.75;101822.84;5115348;28;20043;-64
2022/05/27 03:17:12;;;;;;;5.22;3.10;;;;;;;18.92;57.42;101827.13;5115241;28;20040;-64
2022/05/27 03:20:00;;;;;;;6.72;3.63;;;;;;;18.92;57.46;101832.59;5115386;28;20085;-63
2022/05/27 03:22:33;;;;;;;7.05;3.50;;;;;;;18.90;57.31;101832.72;5115297;28;20176;-63
2022/05/27 03:25:38;;;;;;;6.80;3.17;;;;;;;18.90;57.78;101824.56;5114990;28;20040;-64
2022/05/27 03:28:27;;;;;;;5.07;2.90;;;;;;;18.89;57.22;101830.13;5116626;27;20043;-63
2022/05/27 03:31:01;;;;;;;4.85;2.88;;;;;;;18.85;57.66;101821.41;5117106;27;20055;-63
2022/05/27 03:33:37;;;;;;;4.18;2.70;;;;;;;18.82;57.38;101818.09;5135416;27;20051;-63
2022/05/27 03:36:28;;;;;;;3.75;2.72;;;;;;;18.81;57.49;101829.97;5135721;27;20054;-63
2022/05/27 03:39:06;;;;;;;6.28;3.20;;;;;;;18.80;57.35;101831.84;5135017;27;20520;-63
2022/05/27 03:41:39;;;;;;;4.63;2.95;;;;;;;18.77;57.71;101820.38;5135312;27;20046;-63
2022/05/27 03:44:06;;;;;;;5.95;3.00;;;;;;;18.76;57.60;101819.50;5135427;27;20270;-63
2022/05/27 03:46:36;;;;;;;5.80;3.58;;;;;;;18.77;57.64;101818.50;5135115;27;20043;-63
2022/05/27 03:49:04;;;;;;;4.95;3.20;;;;;;;18.78;57.98;101820.22;5135129;27;20049;-64
2022/05/27 03:51:37;;;;;;;7.75;3.45;;;;;;;18.78;57.65;101816.66;5134897;27;20060;-63
2022/05/27 03:54:10;;;;;;;7.15;3.50;;;;;;;18.76;57.87;101808.63;5135373;27;20062;-63
2022/05/27 03:56:39;;;;;;;6.50;3.65;;;;;;;18.78;57.67;101812.06;5134623;27;20047;-63
2022/05/27 03:59:09;;;;;;;6.97;3.55;;;;;;;18.81;57.82;101810.94;5135055;27;20390;-64
2022/05/27 04:01:38;;;;;;;6.43;3.20;;;;;;;18.81;58.25;101803.63;5134343;27;20035;-63
2022/05/27 04:04:10;;;;;;;6.43;3.90;;;;;;;18.82;57.74;101810.78;5134901;27;20456;-63
2022/05/27 04:06:36;;;;;;;8.10;3.58;;;;;;;18.85;57.95;101817.81;5134569;27;20115;-64
2022/05/27 04:09:05;;;;;;;9.07;3.88;;;;;;;18.86;58.00;101822.25;5134913;27;20126;-63
2022/05/27 04:11:31;;;;;;;8.57;3.80;;;;;;;18.85;57.75;101832.28;5134356;27;20053;-63
2022/05/27 04:14:01;;;;;;;5.07;3.50;;;;;;;18.81;58.22;101828.13;5134799;27;20043;-64
2022/05/27 04:16:28;;;;;;;7.22;4.03;;;;;;;18.80;58.06;101823.66;5134531;27;20497;-63
2022/05/27 04:18:54;;;;;;;9.15;3.85;;;;;;;18.78;57.96;101827.53;5134442;27;20047;-62
2022/05/27 04:21:21;;;;;;;6.80;3.85;;;;;;;18.79;58.00;101838.28;5134245;27;20043;-63
2022/05/27 04:23:52;;;;;;;9.20;4.00;;;;;;;18.82;58.18;101837.13;5134407;27;20493;-63
2022/05/27 04:26:18;;;;;;;5.75;3.75;;;;;;;18.82;58.30;101840.72;5134239;27;20059;-63
2022/05/27 04:28:45;;;;;;;7.85;4.10;;;;;;;18.81;58.42;101839.00;5134925;27;20043;-62
2022/05/27 04:31:12;;;;;;;9.45;4.30;;;;;;;18.82;58.61;101837.13;5133808;27;20035;-62
2022/05/27 04:33:39;;;;;;;7.07;3.95;;;;;;;18.82;58.44;101835.28;5134096;27;20043;-64
2022/05/27 04:36:07;;;;;;;7.53;3.40;;;;;;;18.83;58.53;101830.69;5134644;27;20042;-63
2022/05/27 04:38:34;;;;;;;7.72;4.05;;;;;;;18.87;58.88;101840.31;5134227;27;20035;-63
2022/05/27 04:41:01;;;;;;;10.07;4.38;;;;;;;18.89;58.45;101844.63;5133965;27;20047;-63
2022/05/27 04:43:28;;;;;;;8.35;4.28;;;;;;;18.89;58.36;101836.44;5134199;27;20043;-63
2022/05/27 04:45:58;;;;;;;7.90;4.45;;;;;;;18.91;58.93;101842.63;5134522;27;20392;-63
2022/05/27 04:48:25;;;;;;;9.07;4.32;;;;;;;18.93;58.75;101842.47;5134192;27;20374;-63
2022/05/27 04:50:51;;;;;;;7.65;4.22;;;;;;;18.93;58.93;101837.88;5132875;27;20050;-63
2022/05/27 04:53:18;;;;;;;7.63;4.35;;;;;;;18.94;58.96;101839.63;5133858;27;20046;-63
2022/05/27 04:55:45;;;;;;;6.97;4.18;;;;;;;18.97;58.87;101836.63;5134210;27;20039;-63
2022/05/27 04:58:13;;;;;;;8.73;4.13;;;;;;;18.98;58.82;101843.78;5115768;27;20043;-62
2022/05/27 05:00:43;;;;;;;9.57;4.20;;;;;;;19.01;59.19;101842.63;5133171;27;20043;-63
2022/05/27 05:03:11;;;;;;;6.35;4.07;;;;;;;19.03;59.14;101836.06;5112404;27;20043;-63
2022/05/27 05:05:39;;;;;;;7.78;4.45;;;;;;;19.05;58.75;101842.22;5113077;28;20066;-63
2022/05/27 05:08:28;;;;;;;8.75;5.20;;;;;;;19.06;59.25;101843.06;5113000;28;20051;-63
2022/05/27 05:10:55;;;;;;;8.45;4.80;;;;;;;19.10;58.72;101847.25;5128445;27;20049;-62
2022/05/27 05:13:22;;;;;;;8.55;5.40;;;;;;;19.13;59.04;101846.97;5126908;27;20114;-62
2022/05/27 05:15:49;;;;;;;10.27;5.70;;;;;;;19.18;59.02;101841.97;5124371;27;20050;-62
2022/05/27 05:18:15;;;;;;;10.93;5.22;;;;;;;19.20;59.14;101848.13;5125730;27;20401;-63
2022/05/27 05:20:42;;;;;;;7.85;5.28;;;;;;;19.21;59.42;101859.88;5106745;27;20050;-63
2022/05/27 05:23:08;;;;;;;7.90;5.07;;;;;;;19.19;59.29;101856.44;5132608;27;20042;-63
2022/05/27 05:25:36;;;;;;;9.73;5.57;;;;;;;19.19;59.03;101861.88;5132965;27;20047;-63
2022/05/27 05:28:03;;;;;;;10.38;6.05;;;;;;;19.20;59.20;101866.31;5127563;27;20055;-63
2022/05/27 05:30:34;;;;;;;9.35;5.40;;;;;;;19.20;59.02;101864.47;5129818;27;20401;-63
2022/05/27 05:33:00;;;;;;;9.88;5.78;;;;;;;19.20;59.01;101866.31;5129857;27;20039;-63
2022/05/27 05:35:27;;;;;;;12.45;5.63;;;;;;;19.21;59.06;101860.75;5126173;27;20073;-63
2022/05/27 05:37:53;;;;;;;10.15;4.97;;;;;;;19.21;59.22;101866.19;5127449;27;20504;-63
2022/05/27 05:40:20;;;;;;;12.80;5.88;;;;;;;19.23;59.61;101874.22;5127382;27;20039;-63
2022/05/27 05:42:47;;;;;;;12.73;6.18;;;;;;;19.24;59.64;101878.66;5131244;27;20039;-63
2022/05/27 05:45:17;;;;;;;11.85;6.15;;;;;;;19.26;59.62;101873.94;5120643;27;20040;-63
2022/05/27 05:47:45;;;;;;;13.65;6.05;;;;;;;19.27;59.52;101881.09;5127638;27;20501;-63
2022/05/27 05:50:13;;;;;;;11.20;6.35;;;;;;;19.29;59.97;101881.81;5132530;27;20043;-64
2022/05/27 05:52:40;;;;;;;11.95;5.72;;;;;;;19.32;59.55;101884.25;5132370;27;20050;-63
2022/05/27 05:55:12;;;;;;;9.88;5.88;;;;;;;19.34;59.97;101879.56;5128220;27;20050;-63
2022/05/27 05:57:41;;;;;;;14.10;6.97;;;;;;;19.35;59.79;101881.28;5132914;27;20043;-63
2022/05/27 06:00:11;;;;;;;10.85;6.28;;;;;;;19.38;59.72;101878.28;5126925;27;20054;-63
2022/05/27 06:02:37;;;;;;;15.77;6.82;;;;;;;19.43;59.82;101881.44;5132624;27;20484;-63
2022/05/27 06:05:05;;;;;;;12.57;6.15;;;;;;;19.48;59.84;101889.19;5116588;27;20050;-63
2022/05/27 06:07:34;;;;;;;14.30;6.25;;;;;;;19.54;60.06;101888.66;5132711;27;20039;-63
2022/05/27 06:10:01;;;;;;;11.43;5.95;;;;;;;19.59;60.11;101895.41;5132481;28;20040;-63
2022/05/27 06:12:31;;;;;;;11.40;5.93;;;;;;;19.65;59.76;101883.06;5132934;28;20043;-63
2022/05/27 06:15:00;;;;;;;12.20;5.47;;;;;;;19.68;59.42;101890.97;5132778;28;20039;-63
2022/05/27 06:17:27;;;;;;;13.82;5.97;;;;;;;19.70;59.28;101899.00;5132868;28;20096;-63
2022/05/27 06:19:54;;;;;;;10.60;5.53;;;;;;;19.71;59.29;101895.28;5132686;28;20097;-63
2022/05/27 06:22:20;;;;;;;11.75;4.93;;;;;;;19.71;59.01;101892.53;5132682;28;20047;-63
2022/05/27 06:24:48;;;;;;;7.70;4.82;;;;;;;19.71;59.26;101908.91;5132717;28;20035;-63
2022/05/27 06:27:15;;;;;;;11.98;5.55;;;;;;;19.70;58.91;101899.00;5132925;28;20434;-64
2022/05/27 06:35:12;;;;;;;12.30;4.87;;;;;;;19.84;59.08;101906.75;5117352;28;20051;-63
2022/05/27 06:37:38;;;;;;;12.23;4.63;;;;;;;19.90;58.81;101907.03;5132093;28;20043;-63
2022/05/27 06:40:06;;;;;;;11.23;5.07;;;;;;;19.92;58.47;101901.44;5132809;28;20040;-63
2022/05/27 06:42:33;;;;;;;8.82;3.72;;;;;;;19.95;58.03;101901.16;5132621;28;20134;-64
2022/05/27 06:45:08;;;;;;;7.50;3.63;;;;;;;19.96;58.17;101900.16;5132577;28;20043;-63
2022/05/27 06:47:35;;;;;;;8.00;4.32;;;;;;;20.04;57.66;101907.59;5132358;28;20039;-63
2022/05/27 06:50:02;;;;;;;8.95;3.80;;;;;;;20.14;57.61;101911.22;5132711;28;20397;-63
2022/05/27 06:52:28;;;;;;;11.50;4.00;;;;;;;20.25;57.60;101908.31;5132031;28;20494;-64
2022/05/27 06:54:56;;;;;;;10.77;3.97;;;;;;;20.31;57.26;101908.59;5131898;28;20042;-63
2022/05/27 06:57:23;;;;;;;14.30;3.22;;;;;;;20.35;56.96;101906.44;5132421;28;20058;-65
2022/05/27 06:59:50;;;;;;;8.40;3.22;;;;;;;20.37;56.60;101909.88;5132368;28;20051;-64
2022/05/27 07:02:16;;;;;;;5.28;2.92;;;;;;;20.38;56.42;101914.34;5131549;28;20051;-64
2022/05/27 07:04:44;;;;;;;11.02;3.17;;;;;;;20.37;55.93;101925.38;5113602;28;20051;-64
2022/05/27 07:07:11;;;;;;;5.93;2.78;;;;;;;20.35;55.70;101927.41;5132020;28;20489;-64
2022/05/27 07:09:38;;;;;;;9.50;2.17;;;;;;;20.36;55.14;101929.13;5113478;28;20032;-64
2022/05/27 07:12:08;;;;;;;6.45;2.38;;;;;;;20.39;54.65;101926.09;5131578;28;20386;-64
2022/05/27 07:14:36;;;;;;;6.95;2.25;;;;;;;20.43;54.56;101920.25;5133377;27;20049;-64
2022/05/27 07:17:03;;;;;;;7.53;2.40;;;;;;;20.46;54.00;101922.69;5135427;27;20043;-64
2022/05/27 07:19:39;;;;;;;7.97;2.90;;;;;;;20.51;53.79;101923.09;5135048;27;20071;-64
2022/05/27 07:22:07;;;;;;;7.68;2.20;;;;;;;20.56;53.67;101919.91;5135610;27;20140;-65
2022/05/27 07:24:39;;;;;;;8.75;3.05;;;;;;;20.60;53.57;101918.63;5135589;27;20069;-65
2022/05/27 07:27:06;;;;;;;8.23;2.47;;;;;;;20.60;52.93;101922.22;5134818;27;20043;-65
2022/05/27 07:29:33;;;;;;;6.50;2.13;;;;;;;20.58;52.44;101928.81;5135044;27;20042;-64
2022/05/27 07:31:59;;;;;;;10.48;2.72;;;;;;;20.57;52.43;101922.50;5134835;27;20039;-64
2022/05/27 07:34:28;;;;;;;9.65;2.63;;;;;;;20.57;51.84;101936.16;5135672;27;20035;-65
2022/05/27 07:36:55;;;;;;;11.57;2.70;;;;;;;20.63;51.91;101931.97;5135857;27;20039;-63
2022/05/27 07:39:21;;;;;;;8.90;2.75;;;;;;;20.74;52.22;101929.06;5136050;27;20062;-64
2022/05/27 07:41:48;;;;;;;10.30;2.58;;;;;;;20.87;52.18;101926.88;5135797;27;20525;-64
2022/05/27 07:44:16;;;;;;;13.05;3.42;;;;;;;20.97;51.46;101932.31;5136079;27;20043;-63
2022/05/27 07:46:43;;;;;;;8.00;2.40;;;;;;;21.03;51.33;101939.03;5136482;27;20039;-65
2022/05/27 07:49:09;;;;;;;5.70;2.15;;;;;;;21.01;51.01;101936.47;5134807;27;20123;-64
2022/05/27 07:51:56;;;;;;;9.63;2.53;;;;;;;20.97;50.38;101945.09;5134667;27;20043;-65
2022/05/27 07:54:23;;;;;;;11.98;3.08;;;;;;;20.92;50.43;101932.75;5135039;27;20031;-63
2022/05/27 07:56:50;;;;;;;6.68;2.63;;;;;;;20.89;50.24;101943.97;5134703;27;20039;-64
2022/05/27 07:59:17;;;;;;;9.45;2.35;;;;;;;20.91;49.93;101952.88;5134486;27;20039;-64
2022/05/27 08:01:43;;;;;;;12.07;3.53;;;;;;;20.96;50.02;101943.38;5134559;27;20044;-63
2022/05/27 08:04:10;;;;;;;7.72;2.55;;;;;;;20.99;49.51;101943.09;5116720;27;20054;-65
2022/05/27 08:06:37;;;;;;;7.30;2.53;;;;;;;21.03;49.30;101947.22;5134384;27;20424;-67
2022/05/27 08:09:10;;;;;;;12.00;2.47;;;;;;;21.01;48.35;101949.25;5134636;27;20051;-62
2022/05/27 08:11:37;;;;;;;8.05;2.80;;;;;;;20.97;48.28;101948.69;5134157;27;20054;-61
2022/05/27 08:14:09;;;;;;;5.93;2.22;;;;;;;20.93;47.99;101955.47;5134212;27;20043;-62
2022/05/27 08:16:36;;;;;;;7.97;2.45;;;;;;;20.90;48.10;101944.84;5134013;27;20082;-62
2022/05/27 08:19:03;;;;;;;10.98;2.42;;;;;;;20.92;48.07;101956.47;5134133;27;20047;-62
2022/05/27 08:21:30;;;;;;;8.63;2.30;;;;;;;20.96;47.67;101957.03;5134241;27;20051;-61
2022/05/27 08:23:57;;;;;;;9.73;2.63;;;;;;;20.96;47.45;101957.91;5134057;27;20050;-63
2022/05/27 08:26:24;;;;;;;9.30;2.53;;;;;;;20.97;47.71;101951.41;5133083;27;20035;-62
2022/05/27 08:28:50;;;;;;;11.07;3.10;;;;;;;21.00;47.44;101947.53;5134148;27;20055;-63
2022/05/27 08:31:17;;;;;;;7.97;2.95;;;;;;;21.07;47.20;101954.13;5133937;27;20309;-62
2022/05/27 08:39:15;;;;;;;7.00;2.55;;;;;;;21.27;47.25;101957.66;5133985;27;20054;-63
2022/05/27 08:42:06;;;;;;;9.75;2.85;;;;;;;21.37;47.04;101963.91;5133705;27;20492;-62
2022/05/27 08:44:36;;;;;;;8.02;2.60;;;;;;;21.48;46.69;101967.31;5133639;27;20394;-62
2022/05/27 08:47:16;;;;;;;9.60;2.72;;;;;;;21.57;46.37;101954.63;5133611;27;20043;-63
2022/05/27 08:49:48;;;;;;;7.95;2.78;;;;;;;21.65;46.82;101956.59;5133661;27;20046;-63
2022/05/27 08:52:23;;;;;;;12.07;2.97;;;;;;;21.71;46.25;101955.97;5113040;28;20042;-62
2022/05/27 08:54:57;;;;;;;7.15;2.85;;;;;;;21.70;46.08;101956.97;5113009;28;20048;-62
2022/05/27 09:00:28;;;;;;;10.25;3.95;;;;;;;21.48;44.96;101967.31;5072868;27;20046;-62
2022/05/27 09:03:07;;;;;;;9.38;2.65;;;;;;;21.39;45.11;101967.34;5114483;27;20043;-62
2022/05/27 09:05:44;;;;;;;12.50;2.72;;;;;;;21.31;44.71;101973.59;5133328;27;20043;-62
2022/05/27 09:08:19;;;;;;;6.60;2.53;;;;;;;21.31;44.62;101967.25;5133421;27;20342;-62
2022/05/27 09:10:50;;;;;;;;;;;;;;;21.38;44.99;101968.38;5133793;27;20043;-63
2022/05/27 09:13:20;;;;;;;8.70;2.60;;;;;;;21.59;45.38;101976.34;5132593;27;20412;-62
2022/05/27 09:16:08;;;;;;;6.43;2.33;;;;;;;21.72;44.65;101971.34;5133196;27;20039;-62
2022/05/27 09:18:48;;;;;;;6.25;2.30;;;;;;;21.85;44.47;101971.84;5133399;27;20035;-63
2022/05/27 09:21:36;;;;;;;10.80;2.70;;;;;;;21.93;43.85;101971.91;5132937;27;20050;-63
2022/05/27 09:24:54;;;;;;;10.57;2.90;;;;;;;22.06;43.53;101974.31;5133161;27;20050;-62
2022/05/27 09:27:26;;;;;;;9.93;2.85;;;;;;;22.26;43.43;101970.38;5087949;27;20082;-63
2022/05/27 09:30:04;;;;;;;8.02;2.90;;;;;;;22.44;43.15;101975.84;5114668;27;20350;-62
2022/05/27 09:32:54;;;;;;;10.40;2.97;;;;;;;22.59;42.97;101977.00;5132604;27;20047;-63
2022/05/27 09:35:28;;;;;;;7.63;2.80;;;;;;;22.73;42.79;101976.41;5132579;27;20051;-63
2022/05/27 09:38:30;;;;;;;7.15;2.95;;;;;;;22.82;42.31;101974.63;5132356;27;20046;-63
2022/05/27 09:41:01;;;;;;;8.38;2.80;;;;;;;22.88;41.72;101986.81;5132549;27;20405;-63
2022/05/27 09:43:39;;;;;;;7.78;2.67;;;;;;;22.90;41.71;101988.38;5132521;27;20053;-63
2022/05/27 09:46:12;;;;;;;11.48;3.03;;;;;;;22.98;41.71;101988.41;5132843;27;20496;-64
2022/05/27 09:48:38;;;;;;;11.18;3.80;;;;;;;23.07;41.57;101983.88;5114004;27;20043;-63
2022/05/27 09:51:14;;;;;;;6.90;2.88;;;;;;;23.13;41.48;101986.81;5129947;27;20500;-63
2022/05/27 09:53:48;;;;;;;9.23;2.53;;;;;;;23.18;41.04;101991.81;5139510;27;20043;-63
2022/05/27 09:56:40;;;;;;;14.57;3.13;;;;;;;23.21;40.66;101990.63;5132401;27;20046;-63
2022/05/27 09:59:24;;;;;;;10.30;3.05;;;;;;;23.35;40.86;101990.84;5132536;27;20050;-63
2022/05/27 10:01:50;;;;;;;9.15;2.78;;;;;;;23.45;40.47;101983.34;5132377;27;20043;-63
2022/05/27 10:04:20;;;;;;;8.30;2.67;;;;;;;23.41;39.84;101987.44;5132237;27;20039;-63
2022/05/27 10:06:47;;;;;;;6.72;2.40;;;;;;;23.34;39.74;101991.03;5132483;27;20126;-63
2022/05/27 10:09:29;;;;;;;7.97;2.25;;;;;;;23.33;39.62;101984.69;5132429;27;20066;-64
2022/05/27 10:11:58;;;;;;;6.22;2.80;;;;;;;23.36;39.42;101980.75;5132337;28;20047;-64
2022/05/27 10:14:33;;;;;;;7.85;2.50;;;;;;;23.36;39.42;101991.72;5131989;28;20120;-64
2022/05/27 10:17:05;;;;;;;9.20;3.05;;;;;;;23.34;39.66;101986.41;5131989;28;20054;-63
2022/05/27 10:19:39;;;;;;;6.57;2.33;;;;;;;23.36;39.36;101997.19;5132337;28;20068;-64
2022/05/27 10:22:19;;;;;;;6.43;2.85;;;;;;;23.37;39.33;101994.28;5131859;28;20039;-64
2022/05/27 10:24:56;;;;;;;11.50;2.42;;;;;;;23.34;39.23;101986.41;5131902;28;20031;-64
2022/05/27 10:27:33;;;;;;;10.93;2.90;;;;;;;23.27;39.09;101990.81;5131868;28;20035;-63
2022/05/27 10:30:06;;;;;;;8.63;2.55;;;;;;;23.19;38.58;101988.03;5132325;28;20519;-64
2022/05/27 10:32:41;;;;;;;10.43;2.63;;;;;;;23.19;38.84;101996.25;5132103;28;20046;-63
2022/05/27 10:35:30;;;;;;;6.30;2.05;;;;;;;23.24;38.32;101993.91;5131780;28;20528;-64
2022/05/27 10:38:21;;;;;;;7.85;2.40;;;;;;;23.31;37.84;101994.94;5131918;28;20045;-63
2022/05/27 10:40:55;;;;;;;8.82;2.67;;;;;;;23.34;37.19;101991.03;5131796;28;20519;-63
2022/05/27 10:46:23;;;;;;;8.65;2.22;;;;;;;23.33;37.01;101994.78;5096136;28;20043;-64
2022/05/27 10:49:30;;;;;;;7.05;2.20;;;;;;;23.33;37.07;101989.31;5131639;27;20051;-63
2022/05/27 10:51:56;;;;;;;9.15;2.42;;;;;;;23.47;37.06;102002.38;5135928;27;20416;-63
2022/05/27 10:54:56;;;;;;;7.10;2.55;;;;;;;23.57;37.27;101999.53;5135579;27;20043;-63
2022/05/27 11:04:05;;;;;;;5.65;3.15;;;;;;;23.63;36.56;102001.63;5136042;27;20401;-63
2022/05/27 11:06:48;;;;;;;9.63;3.30;;;;;;;23.59;36.42;102005.72;5121762;27;20452;-62
2022/05/27 11:09:53;;;;;;;7.95;2.50;;;;;;;23.56;36.71;102004.16;5135655;27;20435;-62
2022/05/27 11:15:38;;;;;;;6.65;2.97;;;;;;;23.75;36.70;102006.63;5135115;27;20059;-63
2022/05/27 11:18:07;;;;;;;9.75;2.95;;;;;;;23.77;36.57;102004.56;5135632;27;20062;-62
2022/05/27 11:20:49;;;;;;;6.03;2.22;;;;;;;23.74;36.07;101999.44;5135200;27;20477;-62
2022/05/27 11:23:27;;;;;;;9.05;2.63;;;;;;;23.69;35.88;101999.06;5135136;27;20443;-62
2022/05/27 11:25:57;;;;;;;10.25;2.70;;;;;;;23.62;35.48;102010.88;5135275;27;20062;-63
2022/05/27 11:28:40;;;;;;;7.32;2.72;;;;;;;23.57;35.72;102013.25;5135313;27;20046;-61
2022/05/27 11:31:44;;;;;;;10.88;2.88;;;;;;;23.57;35.67;101996.81;5135093;27;20047;-61
2022/05/27 11:34:39;;;;;;;10.00;3.25;;;;;;;23.70;35.93;102009.00;5136146;27;20046;-62
2022/05/27 11:37:32;;;;;;;5.90;2.45;;;;;;;23.77;35.61;102010.06;5136808;27;20040;-62
2022/05/27 11:40:09;;;;;;;10.27;3.00;;;;;;;23.83;35.57;102004.97;5136696;27;20051;-62
2022/05/27 11:42:59;;;;;;;7.22;2.50;;;;;;;23.93;35.40;102003.78;5136866;27;20099;-62
2022/05/27 11:45:31;;;;;;;9.68;2.38;;;;;;;24.02;35.26;102008.25;5136185;27;20134;-63
2022/05/27 11:48:06;;;;;;;9.32;3.00;;;;;;;24.02;35.15;102013.75;5136360;27;20134;-62
2022/05/27 11:51:05;;;;;;;9.65;2.75;;;;;;;23.96;35.22;102014.44;5135961;27;20377;-61
2022/05/27 11:53:45;;;;;;;11.50;2.97;;;;;;;23.89;35.05;102013.38;5134634;27;20492;-63
2022/05/27 11:56:35;;;;;;;7.13;2.90;;;;;;;23.91;34.94;102008.59;5132612;27;20035;-62
2022/05/27 11:59:10;;;;;;;9.35;2.97;;;;;;;23.89;34.38;102005.16;5136061;27;20046;-63
2022/05/27 12:01:49;;;;;;;8.45;2.72;;;;;;;23.94;34.89;102018.38;5117195;27;20046;-62
2022/05/27 12:04:40;;;;;;;9.48;2.55;;;;;;;24.02;34.49;102008.25;5099781;27;20047;-63
2022/05/27 12:07:32;;;;;;;7.32;2.17;;;;;;;24.11;33.88;102020.13;5135501;27;20035;-63
2022/05/27 12:10:24;;;;;;;7.47;1.80;;;;;;;24.14;33.42;102018.91;5124614;27;20134;-62
2022/05/27 12:13:01;;;;;;;8.05;2.60;;;;;;;24.17;33.22;102002.09;5135591;27;20478;-62
2022/05/27 12:15:36;;;;;;;9.15;2.30;;;;;;;24.20;33.09;102005.38;5135535;27;20047;-63
2022/05/27 12:18:09;;;;;;;12.88;2.60;;;;;;;24.23;33.16;102002.28;5135174;27;20583;-62
2022/05/27 12:20:37;;;;;;;5.78;2.10;;;;;;;24.23;33.14;102010.53;5135030;27;20404;-62
2022/05/27 12:23:08;;;;;;;6.40;2.03;;;;;;;24.26;32.89;102001.94;5134564;27;20035;-62
2022/05/27 12:25:44;;;;;;;6.63;2.10;;;;;;;24.31;32.79;102013.31;5135034;27;20050;-63
2022/05/27 12:28:15;;;;;;;10.13;2.65;;;;;;;24.40;32.50;102001.28;5135080;27;20039;-62